Home

PKWA Terminal Aerodrome Forecast (TAF)small logo


TAF provided by NWS Guam
2014/10/22 18:43
TAF PKWA 221731Z 2218/2318 07009KT P6SM VCSH FEW018 SCT140

      



Site Map | Contact Us | Copyright © 2007 Atmospheric Technology Services Company. All rights reserved.